createdAt,value
2022-10-07T00:00:09.027Z,102432.66
2022-10-07T00:03:10.579Z,102425.59
2022-10-07T00:06:17.250Z,102427.38
2022-10-07T00:09:18.746Z,102415.88
2022-10-07T00:12:21.035Z,102416.72
2022-10-07T00:15:23.668Z,102410.56
2022-10-07T00:18:25.185Z,102410.56
2022-10-07T00:21:29.404Z,102404.38
2022-10-07T00:24:30.977Z,102402.63
2022-10-07T00:27:32.511Z,102401.81
2022-10-07T00:30:34.129Z,102397.41
2022-10-07T00:33:37.944Z,102393.91
2022-10-07T00:36:39.673Z,102391.28
2022-10-07T00:39:41.219Z,102386.03
2022-10-07T00:42:42.899Z,102384.31
2022-10-07T00:45:44.495Z,102382.59
2022-10-07T00:48:46.960Z,102375.50
2022-10-07T00:51:50.572Z,102371.97
2022-10-07T00:54:55.028Z,102370.28
2022-10-07T00:58:01.783Z,102372.94
2022-10-07T01:01:03.955Z,102367.66
2022-10-07T01:04:05.680Z,102375.72
2022-10-07T01:07:07.323Z,102365.13
2022-10-07T01:10:11.968Z,102366.13
2022-10-07T01:13:32.145Z,102366.16
2022-10-07T01:16:39.779Z,102349.41
2022-10-07T01:19:53.237Z,102350.28
2022-10-07T01:23:20.884Z,102350.28
2022-10-07T01:26:31.388Z,102340.50
2022-10-07T01:29:39.323Z,102347.63
2022-10-07T01:32:47.899Z,102334.31
2022-10-07T01:35:51.106Z,102334.34
2022-10-07T01:39:08.956Z,102326.38
2022-10-07T01:42:11.368Z,102321.06
2022-10-07T01:45:17.072Z,102319.34
2022-10-07T01:48:18.651Z,102319.47
2022-10-07T01:51:28.340Z,102310.59
2022-10-07T01:54:47.542Z,102304.50
2022-10-07T01:58:10.142Z,102297.41
2022-10-07T02:01:19.554Z,102293.09
2022-10-07T02:04:35.579Z,102285.19
2022-10-07T02:07:50.825Z,102286.97
2022-10-07T02:11:01.766Z,102280.78
2022-10-07T02:14:21.780Z,102272.94
2022-10-07T02:17:27.279Z,102276.59
2022-10-07T02:20:32.513Z,102273.97
2022-10-07T02:23:37.623Z,102265.16
2022-10-07T02:26:41.647Z,102263.41
2022-10-07T02:29:46.001Z,102257.22
2022-10-07T02:32:59.117Z,102260.84
2022-10-07T02:36:05.809Z,102254.75
2022-10-07T02:39:08.062Z,102256.63
2022-10-07T02:42:27.961Z,102248.75
2022-10-07T02:45:40.576Z,102247.06
2022-10-07T02:48:52.259Z,102240.00
2022-10-07T02:51:56.732Z,102237.41
2022-10-07T02:55:08.423Z,102237.50
2022-10-07T02:58:12.854Z,102233.19
2022-10-07T03:01:23.317Z,102233.19
2022-10-07T03:04:25.204Z,102223.53
2022-10-07T03:07:27.253Z,102235.03
2022-10-07T03:10:31.712Z,102226.28
2022-10-07T03:13:35.276Z,102219.22
2022-10-07T03:16:36.786Z,102227.25
2022-10-07T03:19:38.319Z,102225.50
2022-10-07T03:22:39.865Z,102215.88
2022-10-07T03:25:41.390Z,102215.06
2022-10-07T03:28:43.035Z,102207.97
2022-10-07T03:31:44.619Z,102205.38
2022-10-07T03:34:46.253Z,102198.41
2022-10-07T03:37:48.218Z,102196.66
2022-10-07T03:40:49.954Z,102192.31
2022-10-07T03:43:51.612Z,102185.25
2022-10-07T03:46:53.277Z,102192.38
2022-10-07T03:49:55.306Z,102183.53
2022-10-07T03:52:56.832Z,102184.41
2022-10-07T03:55:58.502Z,102182.59
2022-10-07T03:59:00.889Z,102191.53
2022-10-07T04:02:02.442Z,102180.88
2022-10-07T04:05:04.378Z,102181.81
2022-10-07T04:08:05.941Z,102167.72
2022-10-07T04:11:07.512Z,102162.53
2022-10-07T04:14:09.371Z,102158.94
2022-10-07T04:17:10.926Z,102147.53
2022-10-07T04:20:13.499Z,102151.97
2022-10-07T04:23:15.992Z,102150.19
2022-10-07T04:26:17.569Z,102155.53
2022-10-07T04:29:19.182Z,102144.91
2022-10-07T04:32:23.147Z,102142.31
2022-10-07T04:35:24.895Z,102141.53
2022-10-07T04:38:28.421Z,102142.38
2022-10-07T04:41:30.167Z,102138.97
2022-10-07T04:44:31.682Z,102136.31
2022-10-07T04:47:35.660Z,102134.59
2022-10-07T04:50:40.519Z,102136.44
2022-10-07T04:53:42.191Z,102134.53
2022-10-07T04:56:43.743Z,102130.03
2022-10-07T04:59:45.299Z,102130.94
2022-10-07T05:02:50.432Z,102121.25
2022-10-07T05:05:54.791Z,102127.47
2022-10-07T05:08:56.735Z,102119.59
2022-10-07T05:11:58.273Z,102123.16
2022-10-07T05:15:01.668Z,102124.13
2022-10-07T05:18:03.969Z,102120.69
2022-10-07T05:21:07.377Z,102126.06
2022-10-07T05:24:09.160Z,102118.13
2022-10-07T05:27:10.753Z,102114.63
2022-10-07T05:30:12.773Z,102115.56
2022-10-07T05:33:14.321Z,102113.81
2022-10-07T05:36:15.877Z,102113.94
2022-10-07T05:39:17.373Z,102111.28
2022-10-07T05:42:19.064Z,102103.25
2022-10-07T05:45:20.667Z,102109.16
2022-10-07T05:48:22.193Z,102107.91
2022-10-07T05:51:25.165Z,102101.41
2022-10-07T05:54:26.756Z,102106.38
2022-10-07T05:57:28.428Z,102107.88
2022-10-07T06:00:29.965Z,102103.22
2022-10-07T06:03:31.526Z,102099.41
2022-10-07T06:06:35.503Z,102108.94
2022-10-07T06:09:55.629Z,102102.28
2022-10-07T06:13:09.016Z,102107.13
2022-10-07T06:16:10.574Z,102096.28
2022-10-07T06:19:22.663Z,102082.81
2022-10-07T06:22:24.432Z,102093.31
2022-10-07T06:25:26.020Z,102098.44
2022-10-07T06:28:32.980Z,102097.47
2022-10-07T06:31:34.942Z,102092.81
2022-10-07T06:34:36.873Z,102108.47
2022-10-07T06:37:39.333Z,102102.91
2022-10-07T06:40:40.944Z,102096.41
2022-10-07T06:43:43.009Z,102093.56
2022-10-07T06:46:44.593Z,102095.16
2022-10-07T06:49:46.110Z,102096.75
2022-10-07T06:52:47.692Z,102093.94
2022-10-07T06:55:51.687Z,102095.59
2022-10-07T06:58:53.298Z,102089.38
2022-10-07T07:01:54.912Z,102101.50
2022-10-07T07:04:58.086Z,102109.22
2022-10-07T07:07:59.686Z,102100.97
2022-10-07T07:11:06.195Z,102107.66
2022-10-07T07:14:10.208Z,102104.94
2022-10-07T07:17:12.065Z,102103.06
2022-10-07T07:20:14.558Z,102101.19
2022-10-07T07:23:16.223Z,102089.44
2022-10-07T07:26:18.540Z,102095.38
2022-10-07T07:29:20.547Z,102079.97
2022-10-07T07:32:22.144Z,102074.38
2022-10-07T07:35:25.518Z,102089.28
2022-10-07T07:38:27.609Z,102076.81
2022-10-07T07:41:31.924Z,102084.59
2022-10-07T07:44:34.884Z,102075.50
2022-10-07T07:47:36.718Z,102083.34
2022-10-07T07:50:40.302Z,102076.09
2022-10-07T07:53:41.878Z,102066.34
2022-10-07T07:56:43.494Z,102071.59
2022-10-07T07:59:44.992Z,102069.56
2022-10-07T08:02:46.791Z,102057.88
2022-10-07T08:05:48.885Z,102067.47
2022-10-07T08:08:52.072Z,102057.38
2022-10-07T08:11:53.606Z,102068.66
2022-10-07T08:14:55.186Z,102058.63
2022-10-07T08:17:56.737Z,102057.53
2022-10-07T08:21:00.534Z,102064.31
2022-10-07T08:24:04.612Z,102056.84
2022-10-07T08:27:06.124Z,102061.06
2022-10-07T08:30:08.789Z,102056.31
2022-10-07T08:33:10.340Z,102053.56
2022-10-07T08:36:14.778Z,102056.94
2022-10-07T08:39:16.389Z,102053.25
2022-10-07T08:42:38.924Z,102039.56
2022-10-07T08:45:40.561Z,102035.47
2022-10-07T08:48:45.883Z,102028.06
2022-10-07T08:51:54.038Z,102023.31
2022-10-07T08:54:55.767Z,102020.50
2022-10-07T08:58:09.389Z,102014.06
2022-10-07T09:01:32.678Z,102018.28
2022-10-07T09:04:37.321Z,102014.50
2022-10-07T09:07:51.917Z,102012.44
2022-10-07T09:10:56.005Z,102008.69
2022-10-07T09:14:13.848Z,102014.63
2022-10-07T09:17:35.159Z,101998.19
2022-10-07T09:20:43.664Z,101990.59
2022-10-07T09:23:46.807Z,101996.47
2022-10-07T09:26:48.499Z,101987.94
2022-10-07T09:29:51.489Z,101988.38
2022-10-07T09:32:54.721Z,101994.13
2022-10-07T09:35:58.843Z,101981.97
2022-10-07T09:39:16.129Z,101976.09
2022-10-07T09:42:24.788Z,101970.22
2022-10-07T09:45:33.569Z,101972.19
2022-10-07T09:48:35.096Z,101965.16
2022-10-07T09:51:36.706Z,101972.25
2022-10-07T09:54:38.264Z,101964.06
2022-10-07T09:57:40.516Z,101961.97
2022-10-07T10:00:45.269Z,101967.84
2022-10-07T10:03:46.976Z,101958.75
2022-10-07T10:06:50.889Z,101955.50
2022-10-07T10:09:55.799Z,101949.34
2022-10-07T10:13:00.072Z,101946.63
2022-10-07T10:16:03.894Z,101941.91
2022-10-07T10:19:22.927Z,101933.09
2022-10-07T10:22:30.150Z,101933.38
2022-10-07T10:26:09.440Z,101933.00
2022-10-07T10:29:39.300Z,101922.91
2022-10-07T10:32:48.990Z,101923.84
2022-10-07T10:35:56.253Z,101913.97
2022-10-07T10:39:15.177Z,101904.84
2022-10-07T10:42:22.895Z,101898.59
2022-10-07T10:45:33.674Z,101895.16
2022-10-07T10:48:53.498Z,101899.41
2022-10-07T10:52:13.461Z,101893.97
2022-10-07T10:55:23.465Z,101885.22
2022-10-07T10:59:20.741Z,101883.56
2022-10-07T11:02:36.439Z,101879.03
2022-10-07T11:05:40.507Z,101870.97
2022-10-07T11:08:42.048Z,101871.75
2022-10-07T11:11:44.952Z,101868.03
2022-10-07T11:14:55.725Z,101851.88
2022-10-07T11:18:06.593Z,101852.53
2022-10-07T11:21:22.207Z,101848.34
2022-10-07T11:24:32.166Z,101844.44
2022-10-07T11:27:35.371Z,101841.25
2022-10-07T11:30:48.832Z,101838.47
2022-10-07T11:34:01.264Z,101830.72
2022-10-07T11:37:13.817Z,101829.91
2022-10-07T11:40:16.551Z,101828.53
2022-10-07T11:43:25.563Z,101815.31
2022-10-07T11:46:39.517Z,101819.25
2022-10-07T11:49:55.737Z,101810.81
2022-10-07T11:53:06.477Z,101799.94
2022-10-07T11:56:20.403Z,101795.16
2022-10-07T11:59:45.980Z,101794.81
2022-10-07T12:02:49.144Z,101775.81
2022-10-07T12:05:50.940Z,101771.31
2022-10-07T12:08:53.733Z,101774.47
2022-10-07T12:11:56.708Z,101768.00
2022-10-07T12:15:01.484Z,101761.22
2022-10-07T12:18:05.993Z,101754.63
2022-10-07T12:21:08.457Z,101754.63
2022-10-07T12:24:15.029Z,101751.22
2022-10-07T12:27:21.142Z,101754.16
2022-10-07T12:30:39.608Z,101752.03
2022-10-07T12:33:44.242Z,101743.47
2022-10-07T12:36:45.792Z,101749.47
2022-10-07T12:39:47.748Z,101733.41
2022-10-07T12:42:57.996Z,101730.84
2022-10-07T12:46:00.843Z,101724.75
2022-10-07T12:49:14.724Z,101720.09
2022-10-07T12:52:23.486Z,101730.13
2022-10-07T12:55:38.162Z,101730.38
2022-10-07T12:59:04.028Z,101723.41
2022-10-07T13:02:42.806Z,101718.88
2022-10-07T13:06:18.189Z,101702.72
2022-10-07T13:09:25.449Z,101700.38
2022-10-07T13:12:43.399Z,101707.81
2022-10-07T13:15:48.157Z,101711.38
2022-10-07T13:19:00.387Z,101699.25
2022-10-07T13:22:12.680Z,101692.44
2022-10-07T13:25:17.510Z,101699.16
2022-10-07T13:28:27.017Z,101689.66
2022-10-07T13:31:33.424Z,101684.63
2022-10-07T13:34:35.473Z,101670.81
2022-10-07T13:37:38.204Z,101662.28
2022-10-07T13:40:39.933Z,101649.91
2022-10-07T13:43:44.550Z,101651.88
2022-10-07T13:46:55.529Z,101653.06
2022-10-07T13:49:58.516Z,101655.41
2022-10-07T13:53:01.108Z,101642.59
2022-10-07T13:56:08.968Z,101646.28
2022-10-07T13:59:18.513Z,101638.44
2022-10-07T14:02:20.777Z,101640.91
2022-10-07T14:05:29.323Z,101629.84
2022-10-07T14:08:31.390Z,101622.41
2022-10-07T14:11:32.982Z,101619.47
2022-10-07T14:14:38.052Z,101620.28
2022-10-07T14:17:44.181Z,101611.38
2022-10-07T14:20:55.319Z,101610.53
2022-10-07T14:23:56.898Z,101603.69
2022-10-07T14:26:58.454Z,101605.91
2022-10-07T14:30:01.468Z,101611.66
2022-10-07T14:33:33.219Z,101598.72
2022-10-07T14:36:36.159Z,101596.41
2022-10-07T14:39:37.822Z,101593.97
2022-10-07T14:42:39.468Z,101587.09
2022-10-07T14:45:42.091Z,101596.41
2022-10-07T14:48:44.124Z,101589.34
2022-10-07T14:51:46.352Z,101583.34
2022-10-07T14:54:49.115Z,101573.81
2022-10-07T14:57:50.682Z,101569.41
2022-10-07T15:00:52.640Z,101559.53
2022-10-07T15:03:54.256Z,101554.38
2022-10-07T15:06:55.920Z,101547.28
2022-10-07T15:09:57.524Z,101553.53
2022-10-07T15:12:59.523Z,101539.22
2022-10-07T15:16:01.081Z,101529.69
2022-10-07T15:19:03.127Z,101537.91
2022-10-07T15:22:05.417Z,101535.31
2022-10-07T15:25:08.862Z,101527.41
2022-10-07T15:28:10.442Z,101526.66
2022-10-07T15:31:12.104Z,101530.47
2022-10-07T15:34:14.558Z,101529.72
2022-10-07T15:37:17.559Z,101523.59
2022-10-07T15:40:19.153Z,101524.59
2022-10-07T15:43:20.803Z,101516.78
2022-10-07T15:46:22.378Z,101514.34
2022-10-07T15:49:23.972Z,101521.69
2022-10-07T15:52:26.043Z,101519.19
2022-10-07T15:55:27.577Z,101523.84
2022-10-07T15:58:30.488Z,101517.03
2022-10-07T16:01:32.822Z,101519.94
2022-10-07T16:04:34.475Z,101518.47
2022-10-07T16:07:36.195Z,101510.69
2022-10-07T16:10:37.780Z,101516.06
2022-10-07T16:13:44.166Z,101513.38
2022-10-07T16:16:46.267Z,101513.09
2022-10-07T16:19:48.139Z,101510.31
2022-10-07T16:22:49.960Z,101509.44
2022-10-07T16:25:51.481Z,101518.47
2022-10-07T16:29:13.013Z,101511.41
2022-10-07T16:32:14.595Z,101518.97
2022-10-07T16:35:16.128Z,101519.22
2022-10-07T16:38:18.251Z,101515.81
2022-10-07T16:41:20.950Z,101514.34
2022-10-07T16:44:23.672Z,101508.34
2022-10-07T16:47:25.189Z,101510.31
2022-10-07T16:50:26.753Z,101500.91
2022-10-07T16:53:28.404Z,101495.91
2022-10-07T16:56:33.036Z,101491.72
2022-10-07T16:59:34.746Z,101489.41
2022-10-07T17:02:36.286Z,101482.59
2022-10-07T17:05:39.206Z,101488.94
2022-10-07T17:08:47.460Z,101484.91
2022-10-07T17:11:49.899Z,101486.13
2022-10-07T17:14:51.490Z,101474.75
2022-10-07T17:17:53.660Z,101475.88
2022-10-07T17:20:55.677Z,101470.84
2022-10-07T17:23:58.001Z,101461.34
2022-10-07T17:26:59.553Z,101458.91
2022-10-07T17:30:01.175Z,101456.56
2022-10-07T17:33:02.795Z,101457.91
2022-10-07T17:36:07.669Z,101459.94
2022-10-07T17:39:09.539Z,101458.59
2022-10-07T17:42:11.079Z,101457.97
2022-10-07T17:45:12.612Z,101467.84
2022-10-07T17:48:14.169Z,101461.03
2022-10-07T17:51:17.619Z,101459.53
2022-10-07T17:54:19.219Z,101462.56
2022-10-07T17:57:21.426Z,101466.47
2022-10-07T18:00:22.992Z,101463.06
2022-10-07T18:03:26.622Z,101464.88
2022-10-07T18:06:33.920Z,101452.44
2022-10-07T18:09:35.508Z,101458.78
2022-10-07T18:12:55.522Z,101458.78
2022-10-07T18:16:01.878Z,101453.41
2022-10-07T18:19:03.500Z,101457.19
2022-10-07T18:22:05.460Z,101448.50
2022-10-07T18:25:07.213Z,101441.47
2022-10-07T18:28:08.826Z,101443.28
2022-10-07T18:31:12.169Z,101443.72
2022-10-07T18:34:14.066Z,101439.59
2022-10-07T18:37:16.699Z,101440.44
2022-10-07T18:40:18.403Z,101432.16
2022-10-07T18:43:20.008Z,101435.09
2022-10-07T18:46:23.116Z,101439.94
2022-10-07T18:49:25.177Z,101438.94
2022-10-07T18:52:26.697Z,101438.09
2022-10-07T18:55:28.244Z,101429.44
2022-10-07T18:58:34.525Z,101428.06
2022-10-07T19:01:37.351Z,101421.13
2022-10-07T19:04:40.575Z,101421.25
2022-10-07T19:07:42.117Z,101421.34
2022-10-07T19:10:43.715Z,101417.84
2022-10-07T19:13:48.175Z,101413.56
2022-10-07T19:16:49.866Z,101412.78
2022-10-07T19:19:52.002Z,101413.88
2022-10-07T19:22:53.508Z,101413.38
2022-10-07T19:25:56.978Z,101403.00
2022-10-07T19:28:58.519Z,101405.03
2022-10-07T19:32:05.676Z,101407.94
2022-10-07T19:35:09.462Z,101405.38
2022-10-07T19:38:11.255Z,101405.63
2022-10-07T19:41:16.960Z,101401.44
2022-10-07T19:44:18.701Z,101392.88
2022-10-07T19:47:20.272Z,101389.69
2022-10-07T19:50:22.829Z,101388.44
2022-10-07T19:53:24.357Z,101395.97
2022-10-07T19:56:28.565Z,101388.16
2022-10-07T19:59:30.116Z,101387.41
2022-10-07T20:02:31.771Z,101375.09
2022-10-07T20:05:33.358Z,101384.47
2022-10-07T20:08:36.940Z,101378.59
2022-10-07T20:11:38.606Z,101375.28
2022-10-07T20:14:40.147Z,101374.63
2022-10-07T20:17:42.228Z,101374.97
2022-10-07T20:20:44.208Z,101370.69
2022-10-07T20:23:48.212Z,101369.00
2022-10-07T20:26:49.772Z,101358.63
2022-10-07T20:30:02.227Z,101356.91
2022-10-07T20:33:03.844Z,101352.63
2022-10-07T20:36:06.722Z,101347.50
2022-10-07T20:39:38.082Z,101346.03
2022-10-07T20:42:44.655Z,101338.22
2022-10-07T20:45:56.290Z,101333.94
2022-10-07T20:48:58.148Z,101335.97
2022-10-07T20:52:07.168Z,101327.94
2022-10-07T20:55:09.712Z,101326.31
2022-10-07T20:58:11.227Z,101325.56
2022-10-07T21:01:13.498Z,101316.91
2022-10-07T21:04:15.816Z,101315.19
2022-10-07T21:07:19.172Z,101311.91
2022-10-07T21:10:20.865Z,101308.59
2022-10-07T21:13:22.374Z,101302.50
2022-10-07T21:16:26.503Z,101295.31
2022-10-07T21:19:28.160Z,101287.38
2022-10-07T21:22:29.736Z,101294.69
2022-10-07T21:25:32.641Z,101284.41
2022-10-07T21:28:36.749Z,101288.06
2022-10-07T21:31:38.354Z,101277.38
2022-10-07T21:34:40.223Z,101272.97
2022-10-07T21:37:42.420Z,101271.56
2022-10-07T21:40:43.984Z,101265.50
2022-10-07T21:43:50.218Z,101260.25
2022-10-07T21:46:51.869Z,101255.66
2022-10-07T21:49:53.397Z,101252.03
2022-10-07T21:52:54.920Z,101251.25
2022-10-07T21:55:56.746Z,101250.63
2022-10-07T21:59:00.707Z,101256.94
2022-10-07T22:02:02.650Z,101245.50
2022-10-07T22:05:05.085Z,101250.72
2022-10-07T22:08:33.991Z,101251.72
2022-10-07T22:11:35.527Z,101245.63
2022-10-07T22:14:37.562Z,101251.94
2022-10-07T22:17:39.114Z,101248.44
2022-10-07T22:20:40.901Z,101241.59
2022-10-07T22:23:43.352Z,101241.06
2022-10-07T22:26:47.520Z,101234.47
2022-10-07T22:29:49.080Z,101223.25
2022-10-07T22:32:50.627Z,101221.78
2022-10-07T22:35:52.145Z,101227.34
2022-10-07T22:38:55.640Z,101225.00
2022-10-07T22:41:58.536Z,101220.84
2022-10-07T22:45:00.089Z,101224.81
2022-10-07T22:48:03.086Z,101224.16
2022-10-07T22:51:08.156Z,101225.22
2022-10-07T22:54:12.545Z,101217.31
2022-10-07T22:57:14.092Z,101213.91
2022-10-07T23:00:15.913Z,101209.53
2022-10-07T23:03:17.637Z,101215.00
2022-10-07T23:06:19.904Z,101217.13
2022-10-07T23:09:21.566Z,101217.22
2022-10-07T23:12:23.158Z,101214.66
2022-10-07T23:15:24.732Z,101208.38
2022-10-07T23:18:28.051Z,101203.97
2022-10-07T23:21:34.189Z,101204.84
2022-10-07T23:24:36.555Z,101202.16
2022-10-07T23:27:38.886Z,101205.91
2022-10-07T23:30:40.416Z,101200.78
2022-10-07T23:33:42.000Z,101197.56
2022-10-07T23:36:43.603Z,101194.25
2022-10-07T23:39:45.121Z,101191.69
2022-10-07T23:42:46.894Z,101193.59
2022-10-07T23:45:50.135Z,101182.16
2022-10-07T23:48:52.293Z,101181.38
2022-10-07T23:51:53.810Z,101169.22
2022-10-07T23:54:55.400Z,101177.34
2022-10-07T23:57:56.889Z,101173.94
